createdAt,value
2023-03-10T00:04:13.464Z,321.91411
2023-03-10T00:09:15.064Z,308.49704
2023-03-10T00:14:16.512Z,308.49704
2023-03-10T00:19:17.957Z,300.06936
2023-03-10T00:24:19.383Z,306.35294
2023-03-10T00:29:20.989Z,302.13953
2023-03-10T00:34:22.433Z,308.49704
2023-03-10T00:39:24.017Z,306.35294
2023-03-10T00:44:25.505Z,310.66667
2023-03-10T00:49:27.000Z,312.86228
2023-03-10T00:54:28.537Z,321.91411
2023-03-10T00:59:40.429Z,321.91411
2023-03-10T01:04:49.749Z,319.60976
2023-03-10T01:09:51.316Z,312.86228
2023-03-10T01:14:52.915Z,310.66667
2023-03-10T01:19:54.381Z,310.66667
2023-03-10T01:24:55.841Z,306.35294
2023-03-10T01:29:57.341Z,302.13953
2023-03-10T01:34:58.921Z,296
2023-03-10T01:40:00.591Z,284.33149
2023-03-10T01:45:02.144Z,275.1828
2023-03-10T01:50:03.644Z,256.69036
2023-03-10T01:55:05.131Z,240.15385
2023-03-10T02:00:06.608Z,250.46766
2023-03-10T02:05:08.137Z,244.4878
2023-03-10T02:10:09.666Z,240.15385
2023-03-10T02:15:11.126Z,235.94313
2023-03-10T02:20:12.760Z,240.15385
2023-03-10T02:25:14.249Z,240.15385
2023-03-10T02:30:15.821Z,229.18519
2023-03-10T02:35:17.304Z,229.18519
2023-03-10T02:40:18.781Z,226.56881
2023-03-10T02:45:20.351Z,222.73303
2023-03-10T02:50:21.829Z,219
2023-03-10T02:55:23.331Z,209.51724
2023-03-10T03:00:24.799Z,198.54545
2023-03-10T03:05:26.240Z,197.49794
2023-03-10T03:10:27.721Z,205.01695
2023-03-10T03:15:29.229Z,216.56637
2023-03-10T03:20:30.678Z,222.73303
2023-03-10T03:25:32.223Z,235.94313
2023-03-10T03:30:33.704Z,248.9505
2023-03-10T03:35:35.225Z,282.46154
2023-03-10T03:40:36.854Z,300.06936
2023-03-10T03:45:38.434Z,319.60976
2023-03-10T03:50:39.944Z,326.6087
2023-03-10T03:55:41.428Z,324.24691
2023-03-10T04:00:42.927Z,324.24691
2023-03-10T04:05:44.566Z,319.60976
2023-03-10T04:10:46.036Z,326.6087
2023-03-10T04:15:47.685Z,336.35669
2023-03-10T04:20:49.166Z,333.87342
2023-03-10T04:25:50.614Z,329
2023-03-10T04:30:52.333Z,324.24691
2023-03-10T04:35:53.910Z,321.91411
2023-03-10T04:40:55.391Z,326.6087
2023-03-10T04:45:56.936Z,329
2023-03-10T04:50:58.463Z,315.08434
2023-03-10T04:56:00.096Z,324.24691
2023-03-10T05:01:03.616Z,317.33333
2023-03-10T05:06:05.431Z,312.86228
2023-03-10T05:11:06.875Z,312.86228
2023-03-10T05:16:08.417Z,310.66667
2023-03-10T05:21:10.153Z,321.91411
2023-03-10T05:26:11.789Z,312.86228
2023-03-10T05:31:13.346Z,319.60976
2023-03-10T05:36:15.096Z,312.86228
2023-03-10T05:41:16.679Z,306.35294
2023-03-10T05:46:18.262Z,312.86228
2023-03-10T05:51:19.744Z,317.33333
2023-03-10T05:56:21.237Z,312.86228
2023-03-10T06:01:22.801Z,326.6087
2023-03-10T06:06:24.445Z,336.35669
2023-03-10T06:11:25.960Z,329
2023-03-10T06:16:27.657Z,329
2023-03-10T06:21:29.150Z,321.91411
2023-03-10T06:26:30.661Z,321.91411
2023-03-10T06:31:32.196Z,310.66667
2023-03-10T06:36:33.734Z,312.86228
2023-03-10T06:41:35.222Z,317.33333
2023-03-10T06:46:36.683Z,319.60976
2023-03-10T06:51:38.239Z,319.60976
2023-03-10T06:56:39.722Z,308.49704
2023-03-10T07:01:41.264Z,321.91411
2023-03-10T07:06:42.820Z,317.33333
2023-03-10T07:11:44.757Z,326.6087
2023-03-10T07:16:46.359Z,319.60976
2023-03-10T07:21:47.956Z,319.60976
2023-03-10T07:26:49.420Z,331.42138
2023-03-10T07:31:51.198Z,329
2023-03-10T07:36:52.712Z,331.42138
2023-03-10T07:41:54.188Z,371.77778
2023-03-10T07:46:55.808Z,354.66667
2023-03-10T07:51:57.260Z,371.77778
2023-03-10T07:56:58.819Z,377.80282
2023-03-10T08:02:00.337Z,360.21622
2023-03-10T08:07:01.853Z,360.21622
2023-03-10T08:12:03.376Z,354.66667
2023-03-10T08:17:05.014Z,324.24691
2023-03-10T08:22:06.514Z,331.42138
2023-03-10T08:27:08.034Z,300.06936
2023-03-10T08:32:09.720Z,308.49704
2023-03-10T08:37:11.457Z,308.49704
2023-03-10T08:42:12.978Z,292.0226
2023-03-10T08:47:14.737Z,284.33149
2023-03-10T08:52:16.409Z,298.02299
2023-03-10T08:57:17.900Z,288.13408
2023-03-10T09:02:19.471Z,308.49704
2023-03-10T09:07:20.989Z,321.91411
2023-03-10T09:12:22.512Z,302.13953
2023-03-10T09:17:24.031Z,310.66667
2023-03-10T09:22:25.496Z,296
2023-03-10T09:27:27.125Z,319.60976
2023-03-10T09:32:28.933Z,324.24691
2023-03-10T09:37:30.387Z,319.60976
2023-03-10T09:42:38.051Z,351.94702
2023-03-10T09:47:39.965Z,403.70149
2023-03-10T09:52:41.525Z,387.16547
2023-03-10T09:57:43.061Z,377.80282
2023-03-10T10:02:44.769Z,407.15789
2023-03-10T10:07:46.340Z,440.77419
2023-03-10T10:12:47.887Z,436.8
2023-03-10T10:17:56.397Z,461.64706
2023-03-10T10:23:02.105Z,436.8
2023-03-10T10:28:03.629Z,417.84615
2023-03-10T10:33:05.114Z,475.03448
2023-03-10T10:38:08.409Z,448.91803
2023-03-10T10:43:09.941Z,0
2023-03-10T10:48:11.859Z,0
2023-03-10T10:53:13.334Z,410.66667
2023-03-10T10:58:14.873Z,0
2023-03-10T11:03:16.359Z,0
2023-03-10T11:08:17.913Z,0
2023-03-10T11:13:19.503Z,0
2023-03-10T11:18:21.058Z,0
2023-03-10T11:23:22.580Z,0
2023-03-10T11:28:24.130Z,0
2023-03-10T11:33:25.596Z,0
2023-03-10T11:38:27.113Z,0
2023-03-10T11:43:28.573Z,0
2023-03-10T11:48:30.224Z,466.0339
2023-03-10T11:53:31.800Z,466.0339
2023-03-10T11:58:33.352Z,0
2023-03-10T12:03:34.951Z,0
2023-03-10T12:08:36.672Z,0
2023-03-10T12:13:38.132Z,0
2023-03-10T12:18:40.420Z,0
2023-03-10T12:23:41.897Z,0
2023-03-10T12:28:43.414Z,0
2023-03-10T12:33:44.953Z,0
2023-03-10T12:38:46.423Z,0
2023-03-10T12:43:48.069Z,0
2023-03-10T12:48:49.576Z,0
2023-03-10T12:53:51.124Z,0
2023-03-10T12:58:52.603Z,0
2023-03-10T13:03:54.280Z,0
2023-03-10T13:08:55.776Z,0
2023-03-10T13:13:57.247Z,0
2023-03-10T13:18:58.796Z,0
2023-03-10T13:24:00.298Z,0
2023-03-10T13:29:01.960Z,0
2023-03-10T13:34:03.537Z,0
2023-03-10T13:39:04.975Z,0
2023-03-10T13:44:06.496Z,0
2023-03-10T13:49:08.088Z,0
2023-03-10T13:54:09.909Z,0
2023-03-10T13:59:11.566Z,0
2023-03-10T14:04:13.100Z,0
2023-03-10T14:09:14.614Z,0
2023-03-10T14:14:16.094Z,0
2023-03-10T14:19:17.608Z,0
2023-03-10T14:24:19.044Z,0
2023-03-10T14:29:20.767Z,0
2023-03-10T14:34:22.373Z,0
2023-03-10T14:39:23.897Z,0
2023-03-10T14:44:25.410Z,0
2023-03-10T14:49:27.068Z,0
2023-03-10T14:54:28.581Z,0
2023-03-10T14:59:30.108Z,0
2023-03-10T15:04:31.762Z,0
2023-03-10T15:09:33.227Z,0
2023-03-10T15:14:34.658Z,0
2023-03-10T15:19:36.188Z,0
2023-03-10T15:24:37.659Z,0
2023-03-10T15:29:39.148Z,429.03937
2023-03-10T15:34:40.684Z,494
2023-03-10T15:39:42.158Z,444.81301
2023-03-10T15:44:43.750Z,425.25
2023-03-10T15:49:45.207Z,410.66667
2023-03-10T15:54:46.645Z,396.94118
2023-03-10T15:59:48.245Z,432.88889
2023-03-10T16:04:49.759Z,410.66667
2023-03-10T16:09:51.243Z,380.87943
2023-03-10T16:14:53.007Z,387.16547
2023-03-10T16:19:54.617Z,393.63504
2023-03-10T16:24:56.158Z,374.76923
2023-03-10T16:29:57.952Z,371.77778
2023-03-10T16:34:59.503Z,393.63504
2023-03-10T16:40:01.017Z,374.76923
2023-03-10T16:45:02.502Z,338.87179
2023-03-10T16:50:04.032Z,331.42138
2023-03-10T16:55:05.524Z,326.6087
2023-03-10T17:00:07.658Z,317.33333
2023-03-10T17:05:09.224Z,300.06936
2023-03-10T17:10:11.001Z,296
2023-03-10T17:15:12.457Z,288.13408
2023-03-10T17:20:14.081Z,288.13408
2023-03-10T17:25:15.543Z,286.22222
2023-03-10T17:30:17.077Z,278.78261
2023-03-10T17:35:18.825Z,282.46154
2023-03-10T17:40:20.351Z,296
2023-03-10T17:45:21.817Z,294
2023-03-10T17:50:23.326Z,268.21053
2023-03-10T17:55:24.823Z,264.83333
2023-03-10T18:00:26.512Z,284.33149
2023-03-10T18:05:28.096Z,308.49704
2023-03-10T18:10:29.588Z,310.66667
2023-03-10T18:15:31.128Z,321.91411
2023-03-10T18:20:32.720Z,282.46154
2023-03-10T18:25:34.200Z,288.13408
2023-03-10T18:30:35.652Z,286.22222
2023-03-10T18:35:37.218Z,308.49704
2023-03-10T18:40:38.762Z,312.86228
2023-03-10T18:45:40.257Z,292.0226
2023-03-10T18:50:41.698Z,278.78261
2023-03-10T18:55:43.417Z,266.51309
2023-03-10T19:00:45.167Z,252
2023-03-10T19:05:46.856Z,244.4878
2023-03-10T19:10:48.322Z,241.58454
2023-03-10T19:15:49.839Z,280.61202
2023-03-10T19:20:51.344Z,290.06742
2023-03-10T19:25:52.955Z,319.60976
2023-03-10T19:30:54.468Z,341.41935
2023-03-10T19:35:56.042Z,363.04762
2023-03-10T19:40:57.627Z,396.94118
2023-03-10T19:45:59.097Z,377.80282
2023-03-10T19:51:00.718Z,387.16547
2023-03-10T19:56:02.212Z,400.2963
2023-03-10T20:01:03.998Z,393.63504
2023-03-10T20:06:05.637Z,380.87943
2023-03-10T20:11:07.143Z,360.21622
2023-03-10T20:16:08.615Z,333.87342
2023-03-10T20:21:10.253Z,333.87342
2023-03-10T20:26:11.682Z,324.24691
2023-03-10T20:31:13.178Z,304.23392
2023-03-10T20:36:14.728Z,290.06742
2023-03-10T20:41:16.221Z,282.46154
2023-03-10T20:46:17.768Z,276.97297
2023-03-10T20:51:19.410Z,286.22222
2023-03-10T20:56:20.957Z,290.06742
2023-03-10T21:01:22.555Z,290.06742
2023-03-10T21:06:24.099Z,290.06742
2023-03-10T21:11:25.656Z,284.33149
2023-03-10T21:16:27.142Z,278.78261
2023-03-10T21:21:28.672Z,273.41176
2023-03-10T21:26:30.287Z,266.51309
2023-03-10T21:31:31.809Z,264.83333
2023-03-10T21:36:33.376Z,264.83333
2023-03-10T21:41:34.880Z,259.89744
2023-03-10T21:46:36.473Z,261.52577
2023-03-10T21:51:37.979Z,261.52577
2023-03-10T21:56:39.423Z,258.28571
2023-03-10T22:01:41.072Z,256.69036
2023-03-10T22:06:42.740Z,252
2023-03-10T22:11:44.158Z,255.11111
2023-03-10T22:16:45.693Z,253.54774
2023-03-10T22:21:47.116Z,248.9505
2023-03-10T22:26:48.647Z,248.9505
2023-03-10T22:31:50.110Z,250.46766
2023-03-10T22:36:51.682Z,255.11111
2023-03-10T22:41:53.119Z,263.17098
2023-03-10T22:46:54.712Z,271.65957
2023-03-10T22:51:56.212Z,269.92593
2023-03-10T22:56:57.733Z,268.21053
2023-03-10T23:01:59.355Z,273.41176
2023-03-10T23:07:00.945Z,276.97297
2023-03-10T23:12:02.515Z,276.97297
2023-03-10T23:17:04.029Z,278.78261
2023-03-10T23:22:05.620Z,282.46154
2023-03-10T23:27:07.060Z,280.61202
2023-03-10T23:32:08.637Z,286.22222
2023-03-10T23:37:10.046Z,286.22222
2023-03-10T23:42:11.536Z,286.22222
2023-03-10T23:47:13.067Z,282.46154
2023-03-10T23:52:14.551Z,286.22222
2023-03-10T23:57:16.104Z,290.06742
